Time;durP1;ratioP1;P1;durP2;ratioP2;P2;SDS_P1;SDS_P2;PMS_P1;PMS_P2;Temp;Humidity;BMP_temperature;BMP_pressure;BME280_temperature;BME280_humidity;BME280_pressure;Samples;Min_cycle;Max_cycle;Signal;HPM_P1;HPM_P2
2022/03/27 00:01:53;;;;;;;;;37.00;32.00;;;;;;;;5125490;27;45318;-78
2022/03/27 00:04:18;;;;;;;;;41.00;34.25;;;;;;;;5104100;27;45248;-77
2022/03/27 00:06:44;;;;;;;;;38.25;32.50;;;;;;;;5122590;27;45294;-77
2022/03/27 00:09:09;;;;;;;;;39.75;35.25;;;;;;;;5122540;27;45322;-77
2022/03/27 00:11:34;;;;;;;;;35.75;32.50;;;;;;;;5124040;27;45268;-78
2022/03/27 00:14:05;;;;;;;;;35.75;32.00;;;;;;;;5122636;27;45357;-77
2022/03/27 00:16:31;;;;;;;;;40.00;35.00;;;;;;;;5120517;27;47382;-77
2022/03/27 00:18:57;;;;;;;;;40.50;35.75;;;;;;;;5142879;27;45922;-77
2022/03/27 00:21:23;;;;;;;;;35.25;31.75;;;;;;;;5145122;27;45489;-78
2022/03/27 00:23:49;;;;;;;;;39.50;35.00;;;;;;;;5143240;27;45305;-77
2022/03/27 00:26:14;;;;;;;;;40.00;34.75;;;;;;;;5143149;27;45493;-77
2022/03/27 00:28:39;;;;;;;;;44.00;37.25;;;;;;;;5142760;27;45239;-77
2022/03/27 00:31:06;;;;;;;;;36.50;32.00;;;;;;;;5133204;27;45781;-78
2022/03/27 00:33:32;;;;;;;;;44.75;33.25;;;;;;;;5142778;27;45372;-77
2022/03/27 00:35:58;;;;;;;;;35.75;31.25;;;;;;;;5123968;27;45346;-77
2022/03/27 00:38:25;;;;;;;;;39.75;34.00;;;;;;;;5142618;27;46364;-77
2022/03/27 00:40:50;;;;;;;;;45.75;36.50;;;;;;;;5124057;27;45350;-77
2022/03/27 00:43:18;;;;;;;;;43.00;35.00;;;;;;;;5144111;27;45274;-77
2022/03/27 00:45:44;;;;;;;;;43.50;34.25;;;;;;;;5142641;27;45430;-78
2022/03/27 00:48:10;;;;;;;;;38.00;32.00;;;;;;;;5143941;27;45246;-79
2022/03/27 00:50:35;;;;;;;;;41.00;35.25;;;;;;;;5124261;27;45543;-77
2022/03/27 00:53:01;;;;;;;;;46.75;37.25;;;;;;;;5142456;27;45345;-77
2022/03/27 00:55:26;;;;;;;;;39.50;34.00;;;;;;;;5142614;27;45361;-77
2022/03/27 00:57:51;;;;;;;;;44.25;35.25;;;;;;;;5122972;27;47175;-77
2022/03/27 01:00:45;;;;;;;;;46.00;36.25;;;;;;;;5145514;27;45350;-77
2022/03/27 01:03:14;;;;;;;;;42.00;35.75;;;;;;;;5142422;27;45384;-76
2022/03/27 01:05:40;;;;;;;;;41.25;36.00;;;;;;;;5142323;27;45314;-76
2022/03/27 01:08:06;;;;;;;;;42.75;36.50;;;;;;;;5142330;27;45280;-77
2022/03/27 01:10:31;;;;;;;;;44.75;37.00;;;;;;;;5141149;27;45285;-77
2022/03/27 01:12:57;;;;;;;;;46.25;36.25;;;;;;;;5142365;27;45192;-77
2022/03/27 01:15:42;;;;;;;;;44.00;36.75;;;;;;;;5116394;27;47138;-77
2022/03/27 01:18:08;;;;;;;;;47.50;39.25;;;;;;;;5125247;27;45989;-78
2022/03/27 01:20:34;;;;;;;;;42.75;35.00;;;;;;;;5127583;27;45262;-78
2022/03/27 01:23:01;;;;;;;;;48.75;39.00;;;;;;;;5121482;27;45333;-76
2022/03/27 01:25:26;;;;;;;;;45.75;37.75;;;;;;;;5102602;27;46620;-77
2022/03/27 01:27:51;;;;;;;;;46.00;38.25;;;;;;;;5121146;27;45340;-77
2022/03/27 01:30:16;;;;;;;;;47.50;39.50;;;;;;;;5120978;27;45415;-77
2022/03/27 01:32:41;;;;;;;;;47.75;38.75;;;;;;;;5121164;27;45360;-77
2022/03/27 01:35:07;;;;;;;;;46.50;38.00;;;;;;;;5121277;27;45494;-77
2022/03/27 01:37:32;;;;;;;;;47.50;38.25;;;;;;;;5126789;27;45451;-78
2022/03/27 01:39:58;;;;;;;;;49.50;40.50;;;;;;;;5102618;27;45376;-77
2022/03/27 01:42:23;;;;;;;;;45.25;36.00;;;;;;;;5119888;27;45367;-77
2022/03/27 01:44:48;;;;;;;;;44.75;37.00;;;;;;;;5121140;27;45341;-77
2022/03/27 01:47:13;;;;;;;;;45.50;38.00;;;;;;;;5120506;27;45466;-77
2022/03/27 01:49:40;;;;;;;;;48.50;39.00;;;;;;;;5121044;27;45351;-77
2022/03/27 01:52:05;;;;;;;;;37.00;34.00;;;;;;;;5102335;27;45388;-77
2022/03/27 01:54:30;;;;;;;;;47.25;38.25;;;;;;;;5120660;27;45394;-77
2022/03/27 01:56:56;;;;;;;;;47.25;39.00;;;;;;;;5120916;27;46166;-77
2022/03/27 01:59:22;;;;;;;;;48.75;41.50;;;;;;;;5119488;27;45276;-76
2022/03/27 02:01:47;;;;;;;;;48.00;39.25;;;;;;;;5120757;27;45206;-76
2022/03/27 02:04:13;;;;;;;;;37.00;33.25;;;;;;;;5120925;27;45243;-77
2022/03/27 02:06:39;;;;;;;;;50.75;40.25;;;;;;;;5120047;27;47484;-76
2022/03/27 02:09:04;;;;;;;;;50.50;41.00;;;;;;;;5120663;27;45343;-77
2022/03/27 02:11:30;;;;;;;;;48.50;41.00;;;;;;;;5121020;27;45381;-78
2022/03/27 02:13:55;;;;;;;;;52.25;41.00;;;;;;;;5120416;27;45325;-77
2022/03/27 02:16:20;;;;;;;;;47.00;39.25;;;;;;;;5117163;27;48379;-77
2022/03/27 02:18:46;;;;;;;;;46.75;35.75;;;;;;;;5141045;27;45398;-77
2022/03/27 02:21:11;;;;;;;;;52.25;42.00;;;;;;;;5141460;27;45331;-77
2022/03/27 02:23:37;;;;;;;;;49.00;38.50;;;;;;;;5122251;27;46156;-77
2022/03/27 02:26:03;;;;;;;;;46.75;39.75;;;;;;;;5141193;27;45357;-77
2022/03/27 02:28:28;;;;;;;;;48.75;39.00;;;;;;;;5141182;27;45344;-77
2022/03/27 02:30:53;;;;;;;;;55.25;44.25;;;;;;;;5141435;27;45554;-77
2022/03/27 02:33:19;;;;;;;;;52.50;44.00;;;;;;;;5139536;27;46209;-77
2022/03/27 02:35:44;;;;;;;;;49.75;41.25;;;;;;;;5141137;27;46141;-77
2022/03/27 02:38:10;;;;;;;;;50.00;40.25;;;;;;;;5141146;27;45322;-77
2022/03/27 02:40:36;;;;;;;;;51.00;42.75;;;;;;;;5142396;27;45364;-77
2022/03/27 02:43:01;;;;;;;;;50.25;39.75;;;;;;;;5142257;27;45460;-78
2022/03/27 02:45:27;;;;;;;;;49.75;39.50;;;;;;;;5140524;27;45579;-77
2022/03/27 02:47:53;;;;;;;;;51.50;42.25;;;;;;;;5140835;27;45255;-77
2022/03/27 02:50:19;;;;;;;;;48.00;39.50;;;;;;;;5122257;27;45200;-77
2022/03/27 02:52:44;;;;;;;;;55.50;43.50;;;;;;;;5140502;27;45284;-77
2022/03/27 02:55:10;;;;;;;;;51.00;41.25;;;;;;;;5140771;27;45397;-77
2022/03/27 02:57:36;;;;;;;;;49.50;41.50;;;;;;;;5140954;27;45649;-78
2022/03/27 03:00:01;;;;;;;;;51.00;41.00;;;;;;;;5142989;27;45328;-78
2022/03/27 03:02:26;;;;;;;;;51.25;42.25;;;;;;;;5121891;27;46757;-76
2022/03/27 03:04:52;;;;;;;;;47.00;39.00;;;;;;;;5141708;27;46176;-78
2022/03/27 03:07:18;;;;;;;;;47.50;39.50;;;;;;;;5140714;27;45367;-77
2022/03/27 03:09:43;;;;;;;;;51.00;42.00;;;;;;;;5140763;27;45278;-77
2022/03/27 03:12:09;;;;;;;;;52.00;41.75;;;;;;;;5140777;27;45344;-76
2022/03/27 03:14:34;;;;;;;;;52.00;40.75;;;;;;;;5123232;27;48341;-76
2022/03/27 03:17:01;;;;;;;;;49.50;41.00;;;;;;;;5122062;27;45342;-77
2022/03/27 03:19:26;;;;;;;;;44.25;36.50;;;;;;;;5122602;27;45245;-76
2022/03/27 03:21:52;;;;;;;;;49.25;41.50;;;;;;;;5124637;27;45273;-76
2022/03/27 03:24:17;;;;;;;;;47.25;40.00;;;;;;;;5124715;27;45345;-77
2022/03/27 03:26:42;;;;;;;;;46.75;39.00;;;;;;;;5123871;27;45336;-77
2022/03/27 03:29:07;;;;;;;;;53.25;42.50;;;;;;;;5123821;27;45340;-77
2022/03/27 03:31:32;;;;;;;;;45.25;37.25;;;;;;;;5123301;27;45284;-77
2022/03/27 03:33:58;;;;;;;;;50.25;40.25;;;;;;;;5122818;27;45259;-77
2022/03/27 03:36:23;;;;;;;;;49.00;40.75;;;;;;;;5121479;27;45822;-77
2022/03/27 03:38:48;;;;;;;;;49.00;37.00;;;;;;;;5121891;27;45476;-77
2022/03/27 03:41:13;;;;;;;;;43.50;37.25;;;;;;;;5123037;27;45264;-77
2022/03/27 03:43:39;;;;;;;;;49.50;39.75;;;;;;;;5104498;27;48693;-77
2022/03/27 03:46:04;;;;;;;;;49.25;39.75;;;;;;;;5122745;27;45349;-77
2022/03/27 03:48:29;;;;;;;;;48.25;39.25;;;;;;;;5122929;27;45640;-76
2022/03/27 03:50:55;;;;;;;;;46.50;39.75;;;;;;;;5122814;27;45456;-77
2022/03/27 03:53:20;;;;;;;;;43.00;34.00;;;;;;;;5122575;27;45313;-76
2022/03/27 03:55:45;;;;;;;;;46.25;39.50;;;;;;;;5122847;27;45747;-76
2022/03/27 03:58:10;;;;;;;;;49.00;40.00;;;;;;;;5123040;27;45283;-77
2022/03/27 04:00:36;;;;;;;;;47.75;40.25;;;;;;;;5123849;27;45220;-78
2022/03/27 04:03:02;;;;;;;;;49.25;40.00;;;;;;;;5124232;27;46073;-77
2022/03/27 04:05:28;;;;;;;;;49.50;40.50;;;;;;;;5121343;27;45845;-79
2022/03/27 04:07:53;;;;;;;;;46.75;38.50;;;;;;;;5125002;27;45379;-78
2022/03/27 04:10:19;;;;;;;;;48.00;39.75;;;;;;;;5124378;27;45336;-80
2022/03/27 04:12:44;;;;;;;;;48.25;39.25;;;;;;;;5120820;27;46987;-78
2022/03/27 04:15:09;;;;;;;;;48.00;39.00;;;;;;;;5127615;27;45349;-79
2022/03/27 04:17:41;;;;;;;;;46.75;38.75;;;;;;;;5143150;27;45368;-79
2022/03/27 04:20:06;;;;;;;;;43.25;37.25;;;;;;;;5143050;27;45359;-79
2022/03/27 04:22:31;;;;;;;;;47.50;39.00;;;;;;;;5142893;27;46190;-79
2022/03/27 04:24:57;;;;;;;;;45.25;39.00;;;;;;;;5143178;27;45333;-79
2022/03/27 04:27:23;;;;;;;;;51.75;40.75;;;;;;;;5124661;27;45460;-80
2022/03/27 04:29:49;;;;;;;;;46.50;37.00;;;;;;;;5124039;27;47164;-79
2022/03/27 04:32:15;;;;;;;;;48.25;40.00;;;;;;;;5141474;27;45332;-79
2022/03/27 04:34:40;;;;;;;;;47.25;38.50;;;;;;;;5142856;27;45464;-80
2022/03/27 04:37:05;;;;;;;;;44.75;36.50;;;;;;;;5145103;27;45262;-80
2022/03/27 04:39:31;;;;;;;;;45.75;39.00;;;;;;;;5142913;27;45454;-79
2022/03/27 04:41:56;;;;;;;;;43.50;36.50;;;;;;;;5141228;27;47080;-79
2022/03/27 04:44:21;;;;;;;;;45.75;39.00;;;;;;;;5142856;27;45376;-79
2022/03/27 04:46:46;;;;;;;;;43.75;36.25;;;;;;;;5142493;27;45243;-79
2022/03/27 04:49:13;;;;;;;;;51.75;42.50;;;;;;;;5142589;27;45228;-79
2022/03/27 04:51:38;;;;;;;;;49.00;40.50;;;;;;;;5142724;27;45370;-80
2022/03/27 04:54:04;;;;;;;;;49.25;36.75;;;;;;;;5142541;27;45340;-79
2022/03/27 04:56:31;;;;;;;;;41.75;36.25;;;;;;;;5142762;27;45275;-79
2022/03/27 04:58:56;;;;;;;;;40.75;34.25;;;;;;;;5142583;27;45527;-80
2022/03/27 05:01:21;;;;;;;;;47.25;37.75;;;;;;;;5142478;27;45411;-79
2022/03/27 05:03:47;;;;;;;;;38.50;34.75;;;;;;;;5142283;27;45446;-79
2022/03/27 05:06:12;;;;;;;;;39.25;34.00;;;;;;;;5123838;27;45326;-79
2022/03/27 05:08:37;;;;;;;;;40.75;33.25;;;;;;;;5142203;27;45359;-79
2022/03/27 05:11:03;;;;;;;;;48.75;37.75;;;;;;;;5123385;27;46897;-79
2022/03/27 05:13:28;;;;;;;;;48.50;38.25;;;;;;;;5123540;27;45356;-79
2022/03/27 05:15:53;;;;;;;;;42.50;35.75;;;;;;;;5112139;27;45374;-79
2022/03/27 05:18:19;;;;;;;;;48.50;38.00;;;;;;;;5121282;27;45424;-79
2022/03/27 05:20:45;;;;;;;;;43.00;36.75;;;;;;;;5121401;27;45326;-79
2022/03/27 05:23:10;;;;;;;;;45.75;37.00;;;;;;;;5120040;27;45286;-79
2022/03/27 05:25:45;;;;;;;;;42.25;36.00;;;;;;;;5121503;27;45408;-79
2022/03/27 05:28:10;;;;;;;;;49.00;39.50;;;;;;;;5121207;27;45337;-79
2022/03/27 05:30:36;;;;;;;;;46.25;37.00;;;;;;;;5121157;27;45301;-79
2022/03/27 05:33:03;;;;;;;;;48.75;39.75;;;;;;;;5102367;27;45314;-79
2022/03/27 05:35:28;;;;;;;;;45.00;36.75;;;;;;;;5102583;27;45337;-79
2022/03/27 05:37:54;;;;;;;;;44.50;37.50;;;;;;;;5102906;27;45826;-80
2022/03/27 05:40:21;;;;;;;;;39.75;35.25;;;;;;;;5121266;27;45575;-78
2022/03/27 05:42:47;;;;;;;;;43.25;36.25;;;;;;;;5120718;27;45325;-79
2022/03/27 05:45:13;;;;;;;;;37.75;34.00;;;;;;;;5121367;27;45353;-79
2022/03/27 05:47:41;;;;;;;;;41.50;36.75;;;;;;;;5120261;27;45408;-79
2022/03/27 05:50:07;;;;;;;;;41.75;35.00;;;;;;;;5120823;27;46063;-79
2022/03/27 05:52:32;;;;;;;;;44.00;36.25;;;;;;;;5102333;27;45792;-79
2022/03/27 05:54:57;;;;;;;;;42.50;36.75;;;;;;;;5102419;27;45313;-79
2022/03/27 05:57:22;;;;;;;;;43.25;36.25;;;;;;;;5121031;27;45373;-79
2022/03/27 05:59:48;;;;;;;;;43.75;36.00;;;;;;;;5120764;27;45254;-80
2022/03/27 06:02:13;;;;;;;;;42.50;35.00;;;;;;;;5120666;27;45143;-79
2022/03/27 06:04:39;;;;;;;;;36.50;32.50;;;;;;;;5120763;27;45209;-80
2022/03/27 06:07:05;;;;;;;;;47.00;36.50;;;;;;;;5120612;27;45454;-79
2022/03/27 06:09:30;;;;;;;;;44.25;37.50;;;;;;;;5101990;27;48308;-79
2022/03/27 06:11:55;;;;;;;;;40.75;34.75;;;;;;;;5102145;27;45244;-79
2022/03/27 06:14:21;;;;;;;;;45.50;34.25;;;;;;;;5119328;27;45402;-80
2022/03/27 06:16:46;;;;;;;;;49.00;38.50;;;;;;;;5139546;27;45610;-80
2022/03/27 06:19:11;;;;;;;;;41.75;36.00;;;;;;;;5122787;27;48029;-80
2022/03/27 06:21:36;;;;;;;;;48.00;36.75;;;;;;;;5141299;27;45414;-79
2022/03/27 06:24:02;;;;;;;;;48.25;39.00;;;;;;;;5141380;27;45360;-79
2022/03/27 06:26:27;;;;;;;;;47.25;37.25;;;;;;;;5141146;27;45325;-79
2022/03/27 06:28:52;;;;;;;;;45.50;38.00;;;;;;;;5140944;27;46307;-79
2022/03/27 06:31:17;;;;;;;;;39.00;33.50;;;;;;;;5141218;27;45322;-79
2022/03/27 06:33:43;;;;;;;;;45.25;36.25;;;;;;;;5141088;27;45370;-79
2022/03/27 06:36:08;;;;;;;;;41.75;35.25;;;;;;;;5141207;27;45666;-80
2022/03/27 06:38:33;;;;;;;;;40.00;35.25;;;;;;;;5140963;27;46361;-80
2022/03/27 06:40:58;;;;;;;;;43.25;36.25;;;;;;;;5122063;27;45318;-79
2022/03/27 06:43:23;;;;;;;;;45.25;38.00;;;;;;;;5113885;27;45361;-80
2022/03/27 06:45:49;;;;;;;;;41.50;36.00;;;;;;;;5116348;27;45600;-80
2022/03/27 06:48:15;;;;;;;;;45.75;37.75;;;;;;;;5101517;27;46833;-79
2022/03/27 06:50:40;;;;;;;;;40.00;34.00;;;;;;;;5117027;27;46135;-77
2022/03/27 06:53:06;;;;;;;;;45.75;37.25;;;;;;;;5101063;27;45279;-79
2022/03/27 06:55:32;;;;;;;;;42.00;36.25;;;;;;;;5122589;27;45393;-79
2022/03/27 06:57:57;;;;;;;;;44.00;33.75;;;;;;;;5124093;27;46006;-79
2022/03/27 07:03:06;;;;;;;;;46.50;37.00;;;;;;;;5135620;27;45220;-80
2022/03/27 07:05:36;;;;;;;;;44.25;34.50;;;;;;;;5128117;27;45434;-81
2022/03/27 07:08:02;;;;;;;;;41.00;36.25;;;;;;;;5133240;27;45997;-80
2022/03/27 07:10:27;;;;;;;;;42.50;35.75;;;;;;;;5131990;27;45507;-82
2022/03/27 07:12:53;;;;;;;;;42.75;36.25;;;;;;;;5133300;27;45420;-81
2022/03/27 07:15:18;;;;;;;;;43.25;34.00;;;;;;;;5145184;27;45439;-81
2022/03/27 07:17:48;;;;;;;;;41.75;36.25;;;;;;;;5155499;27;48457;-82
2022/03/27 07:20:18;;;;;;;;;42.25;35.25;;;;;;;;5139569;27;45354;-82
2022/03/27 07:22:43;;;;;;;;;44.50;35.75;;;;;;;;5132470;27;45679;-83
2022/03/27 07:25:09;;;;;;;;;41.50;36.50;;;;;;;;5122387;27;45294;-80
2022/03/27 07:27:34;;;;;;;;;43.25;37.25;;;;;;;;5123356;27;45344;-78
2022/03/27 07:30:00;;;;;;;;;44.00;36.75;;;;;;;;5123048;27;45380;-78
2022/03/27 07:32:25;;;;;;;;;42.50;35.00;;;;;;;;5123144;27;45266;-80
2022/03/27 07:34:50;;;;;;;;;41.75;35.75;;;;;;;;5104386;27;46851;-80
2022/03/27 07:37:16;;;;;;;;;45.00;36.00;;;;;;;;5104433;27;47626;-78
2022/03/27 07:39:41;;;;;;;;;44.25;36.75;;;;;;;;5123049;27;45307;-78
2022/03/27 07:42:06;;;;;;;;;42.00;34.75;;;;;;;;5123158;27;45314;-80
2022/03/27 07:44:32;;;;;;;;;39.00;33.50;;;;;;;;5123032;27;45270;-80
2022/03/27 07:46:59;;;;;;;;;42.75;36.00;;;;;;;;5122401;27;45374;-79
2022/03/27 07:49:25;;;;;;;;;42.00;36.00;;;;;;;;5123482;27;45357;-82
2022/03/27 07:51:50;;;;;;;;;41.75;35.25;;;;;;;;5138942;27;45379;-81
2022/03/27 07:54:15;;;;;;;;;44.25;36.75;;;;;;;;5129985;27;45366;-80
2022/03/27 07:56:41;;;;;;;;;40.50;33.75;;;;;;;;5122720;27;46482;-79
2022/03/27 07:59:06;;;;;;;;;41.25;35.00;;;;;;;;5122960;27;45265;-77
2022/03/27 08:01:31;;;;;;;;;42.75;36.00;;;;;;;;5122759;27;45517;-78
2022/03/27 08:03:56;;;;;;;;;42.50;36.00;;;;;;;;5123025;27;45506;-79
2022/03/27 08:06:22;;;;;;;;;46.75;38.00;;;;;;;;5122299;27;45359;-78
2022/03/27 08:08:48;;;;;;;;;44.25;36.25;;;;;;;;5122684;27;45347;-79
2022/03/27 08:11:14;;;;;;;;;47.50;38.75;;;;;;;;5122666;27;45321;-77
2022/03/27 08:13:39;;;;;;;;;44.00;36.50;;;;;;;;5104083;27;47698;-79
2022/03/27 08:16:04;;;;;;;;;37.75;34.75;;;;;;;;5135299;27;45464;-78
2022/03/27 08:18:33;;;;;;;;;42.75;36.25;;;;;;;;5123979;27;45721;-78
2022/03/27 08:20:58;;;;;;;;;45.75;38.00;;;;;;;;5114888;27;45272;-78
2022/03/27 08:23:23;;;;;;;;;36.75;33.50;;;;;;;;5122223;27;45258;-78
2022/03/27 08:28:33;;;;;;;;;35.00;32.25;;;;;;;;5121270;27;45508;-78
2022/03/27 08:30:58;;;;;;;;;38.00;33.75;;;;;;;;5123409;27;45385;-79
2022/03/27 08:33:23;;;;;;;;;42.25;35.00;;;;;;;;5122854;27;45296;-79
2022/03/27 08:35:48;;;;;;;;;33.25;30.50;;;;;;;;5139931;27;45208;-79
2022/03/27 08:38:15;;;;;;;;;40.75;33.00;;;;;;;;5134459;27;45347;-81
2022/03/27 08:40:41;;;;;;;;;39.00;33.00;;;;;;;;5112952;27;45255;-80
2022/03/27 08:43:08;;;;;;;;;37.50;33.75;;;;;;;;5122170;27;45388;-80
2022/03/27 08:45:33;;;;;;;;;40.50;35.00;;;;;;;;5110425;27;47410;-81
2022/03/27 08:47:59;;;;;;;;;37.25;33.25;;;;;;;;5127853;27;45281;-81
2022/03/27 08:50:29;;;;;;;;;37.00;33.00;;;;;;;;5126056;27;45406;-80
2022/03/27 08:52:56;;;;;;;;;38.75;34.75;;;;;;;;5135514;27;45459;-81
2022/03/27 08:55:40;;;;;;;;;40.50;32.75;;;;;;;;5139146;27;46055;-80
2022/03/27 08:58:07;;;;;;;;;34.75;31.25;;;;;;;;5118138;27;46203;-80
2022/03/27 09:00:33;;;;;;;;;37.25;32.25;;;;;;;;5112861;27;45302;-80
2022/03/27 09:03:00;;;;;;;;;34.75;31.50;;;;;;;;5134600;27;45331;-81
2022/03/27 09:05:26;;;;;;;;;33.75;31.00;;;;;;;;5138473;27;46451;-80
2022/03/27 09:07:53;;;;;;;;;37.00;32.00;;;;;;;;5113643;27;45369;-80
2022/03/27 09:10:18;;;;;;;;;35.75;32.00;;;;;;;;5114923;27;45251;-80
2022/03/27 09:12:44;;;;;;;;;37.25;32.75;;;;;;;;5124987;27;45226;-80
2022/03/27 09:15:10;;;;;;;;;36.75;32.00;;;;;;;;5128647;27;45435;-79
2022/03/27 09:17:54;;;;;;;;;35.75;32.75;;;;;;;;5143045;27;45401;-80
2022/03/27 09:20:35;;;;;;;;;40.75;35.25;;;;;;;;5124385;27;45596;-79
2022/03/27 09:23:11;;;;;;;;;40.25;34.75;;;;;;;;5144502;27;46112;-80
2022/03/27 09:25:47;;;;;;;;;39.75;33.75;;;;;;;;5144589;27;45168;-80
2022/03/27 09:28:20;;;;;;;;;36.75;32.50;;;;;;;;5143082;27;45479;-79
2022/03/27 09:30:45;;;;;;;;;33.50;30.50;;;;;;;;5129736;27;45271;-79
2022/03/27 09:33:10;;;;;;;;;34.75;31.00;;;;;;;;5147011;27;45960;-80
2022/03/27 09:35:37;;;;;;;;;36.50;32.50;;;;;;;;5133231;27;45369;-79
2022/03/27 09:38:11;;;;;;;;;37.50;32.50;;;;;;;;5119291;27;44802;-80
2022/03/27 09:40:36;;;;;;;;;37.00;31.00;;;;;;;;5103763;27;45437;-79
2022/03/27 09:43:09;;;;;;;;;33.25;29.00;;;;;;;;5106184;27;45928;-79
2022/03/27 09:45:34;;;;;;;;;34.00;31.00;;;;;;;;5111241;27;47404;-80
2022/03/27 09:48:06;;;;;;;;;40.50;33.00;;;;;;;;5125477;27;46421;-78
2022/03/27 09:50:34;;;;;;;;;36.75;30.25;;;;;;;;5129116;27;45338;-79
2022/03/27 09:53:19;;;;;;;;;35.00;31.00;;;;;;;;5126705;27;46218;-79
2022/03/27 09:55:45;;;;;;;;;39.00;33.50;;;;;;;;5110854;27;48190;-79
2022/03/27 09:58:12;;;;;;;;;37.75;32.50;;;;;;;;5104662;27;45331;-78
2022/03/27 10:00:37;;;;;;;;;36.00;32.25;;;;;;;;5125806;27;45371;-78
2022/03/27 10:03:09;;;;;;;;;35.67;32.00;;;;;;;;5128092;27;45259;-78
2022/03/27 10:05:35;;;;;;;;;34.00;28.33;;;;;;;;5107133;27;47160;-80
2022/03/27 10:08:01;;;;;;;;;39.75;34.00;;;;;;;;5124779;27;45236;-80
2022/03/27 10:10:27;;;;;;;;;35.67;30.00;;;;;;;;5107689;27;45329;-79
2022/03/27 10:12:54;;;;;;;;;35.67;31.00;;;;;;;;5132782;27;45444;-77
2022/03/27 10:15:24;;;;;;;;;42.25;33.50;;;;;;;;5143528;27;46002;-78
2022/03/27 10:17:59;;;;;;;;;34.33;31.00;;;;;;;;5157314;27;45380;-82
2022/03/27 10:20:33;;;;;;;;;34.00;31.33;;;;;;;;5156863;27;45282;-80
2022/03/27 10:23:09;;;;;;;;;38.00;31.00;;;;;;;;5136988;27;46203;-81
2022/03/27 10:25:44;;;;;;;;;36.33;33.00;;;;;;;;5154194;27;46556;-82
2022/03/27 10:28:10;;;;;;;;;34.67;31.00;;;;;;;;5156517;27;45290;-82
2022/03/27 10:30:35;;;;;;;;;30.33;29.33;;;;;;;;5139171;27;45379;-82
2022/03/27 10:33:01;;;;;;;;;38.00;32.00;;;;;;;;5141582;27;46036;-81
2022/03/27 10:35:39;;;;;;;;;36.67;32.33;;;;;;;;5161175;27;46511;-80
2022/03/27 10:38:04;;;;;;;;;40.67;33.00;;;;;;;;5136583;27;45273;-81
2022/03/27 10:40:35;;;;;;;;;41.00;34.33;;;;;;;;5157044;27;45370;-81
2022/03/27 10:43:05;;;;;;;;;37.00;31.00;;;;;;;;5155422;27;46130;-82
2022/03/27 10:45:32;;;;;;;;;35.67;31.67;;;;;;;;5156271;27;46412;-81
2022/03/27 10:48:11;;;;;;;;;36.33;32.67;;;;;;;;5142859;27;45570;-82
2022/03/27 10:50:45;;;;;;;;;35.33;31.00;;;;;;;;5152054;27;45399;-81
2022/03/27 10:53:10;;;;;;;;;31.00;28.33;;;;;;;;5164231;27;44747;-79
2022/03/27 10:55:37;;;;;;;;;30.00;28.00;;;;;;;;5126679;27;47501;-79
2022/03/27 10:58:23;;;;;;;;;37.00;32.00;;;;;;;;5130315;27;45777;-79
2022/03/27 11:00:48;;;;;;;;;42.00;35.33;;;;;;;;5128549;27;45456;-80
2022/03/27 11:03:33;;;;;;;;;34.33;31.00;;;;;;;;5113609;27;46243;-79
2022/03/27 11:05:59;;;;;;;;;34.00;31.67;;;;;;;;5127455;27;45268;-83
2022/03/27 11:08:26;;;;;;;;;31.67;28.33;;;;;;;;5124768;27;45164;-81
2022/03/27 11:10:54;;;;;;;;;25.00;23.00;;;;;;;;5106275;27;45416;-82
2022/03/27 11:13:26;;;;;;;;;38.00;31.33;;;;;;;;5111738;27;46073;-80
2022/03/27 11:16:03;;;;;;;;;25.67;24.00;;;;;;;;5146757;27;45343;-81
2022/03/27 11:18:40;;;;;;;;;29.67;26.67;;;;;;;;5160479;27;45392;-78
2022/03/27 11:21:07;;;;;;;;;30.67;29.33;;;;;;;;5158939;27;45262;-78
2022/03/27 11:23:33;;;;;;;;;35.00;31.00;;;;;;;;5122351;27;46373;-79
2022/03/27 11:25:59;;;;;;;;;22.67;21.00;;;;;;;;5130416;27;45576;-79
2022/03/27 11:28:26;;;;;;;;;37.67;32.67;;;;;;;;5133895;27;45354;-78
2022/03/27 11:30:52;;;;;;;;;36.00;31.67;;;;;;;;5137685;27;45513;-78
2022/03/27 11:33:19;;;;;;;;;32.00;29.00;;;;;;;;5138346;27;45427;-79
2022/03/27 11:36:03;;;;;;;;;31.33;30.00;;;;;;;;5135290;27;46240;-80
2022/03/27 11:38:32;;;;;;;;;30.67;25.33;;;;;;;;5134039;27;45409;-78
2022/03/27 11:41:17;;;;;;;;;38.33;32.00;;;;;;;;5116000;27;45346;-78
2022/03/27 11:43:43;;;;;;;;;36.67;31.67;;;;;;;;5109483;27;46058;-79
2022/03/27 11:46:09;;;;;;;;;35.00;31.67;;;;;;;;5133559;27;46305;-78
2022/03/27 11:48:35;;;;;;;;;37.33;30.33;;;;;;;;5111660;27;46003;-78
2022/03/27 11:51:00;;;;;;;;;37.00;32.00;;;;;;;;5130479;27;45938;-76
2022/03/27 11:53:29;;;;;;;;;36.67;33.00;;;;;;;;5128300;27;45517;-78
2022/03/27 11:56:03;;;;;;;;;37.00;31.00;;;;;;;;5131559;27;45312;-78
2022/03/27 11:58:28;;;;;;;;;39.33;32.33;;;;;;;;5108151;27;45376;-76
2022/03/27 12:00:53;;;;;;;;;35.33;31.00;;;;;;;;5124106;27;45498;-77
2022/03/27 12:03:20;;;;;;;;;36.33;32.00;;;;;;;;5123541;27;45502;-77
2022/03/27 12:05:46;;;;;;;;;37.33;31.00;;;;;;;;5128548;27;45929;-77
2022/03/27 12:08:15;;;;;;;;;35.67;31.00;;;;;;;;5123671;27;45312;-78
2022/03/27 12:10:43;;;;;;;;;34.00;30.00;;;;;;;;5125868;27;45363;-77
2022/03/27 12:13:09;;;;;;;;;39.00;32.33;;;;;;;;5104388;27;46054;-77
2022/03/27 12:15:40;;;;;;;;;30.00;28.67;;;;;;;;5131951;27;45336;-79
2022/03/27 12:18:05;;;;;;;;;36.00;30.67;;;;;;;;5143471;27;45287;-78
2022/03/27 12:20:46;;;;;;;;;26.67;26.67;;;;;;;;5144523;27;45258;-77
2022/03/27 12:23:17;;;;;;;;;34.00;30.67;;;;;;;;5143339;27;45693;-77
2022/03/27 12:25:43;;;;;;;;;34.00;31.50;;;;;;;;5150899;27;46214;-78
2022/03/27 12:30:53;;;;;;;;;32.67;30.33;;;;;;;;5143629;27;45384;-76
2022/03/27 12:33:23;;;;;;;;;31.67;30.33;;;;;;;;5143605;27;45319;-78
2022/03/27 12:36:05;;;;;;;;;35.00;32.00;;;;;;;;5124261;27;48447;-78
2022/03/27 12:38:34;;;;;;;;;32.00;29.33;;;;;;;;5143986;27;45384;-77
2022/03/27 12:40:59;;;;;;;;;32.33;28.67;;;;;;;;5145513;27;45494;-78
2022/03/27 12:43:25;;;;;;;;;37.67;29.67;;;;;;;;5143187;27;45235;-78
2022/03/27 12:45:50;;;;;;;;;32.00;29.00;;;;;;;;5142950;27;45353;-78
2022/03/27 12:48:16;;;;;;;;;32.67;30.33;;;;;;;;5143833;27;45152;-77
2022/03/27 12:50:43;;;;;;;;;31.67;27.33;;;;;;;;5144058;27;45483;-78
2022/03/27 12:53:12;;;;;;;;;31.00;27.67;;;;;;;;5144876;27;45346;-78
2022/03/27 12:55:42;;;;;;;;;32.33;30.00;;;;;;;;5125839;27;47738;-78
2022/03/27 12:58:07;;;;;;;;;28.67;28.00;;;;;;;;5143741;27;45395;-78
2022/03/27 13:00:34;;;;;;;;;31.67;29.67;;;;;;;;5144826;27;45378;-78
2022/03/27 13:03:18;;;;;;;;;37.67;33.00;;;;;;;;5138779;27;45503;-78
2022/03/27 13:05:44;;;;;;;;;32.33;30.67;;;;;;;;5101155;27;45419;-78
2022/03/27 13:08:10;;;;;;;;;30.33;29.33;;;;;;;;5103458;27;45403;-77
2022/03/27 13:10:37;;;;;;;;;30.67;28.00;;;;;;;;5109883;27;45276;-78
2022/03/27 13:13:13;;;;;;;;;34.00;32.00;;;;;;;;5104724;27;45497;-76
2022/03/27 13:15:52;;;;;;;;;32.67;30.00;;;;;;;;5133758;27;45426;-78
2022/03/27 13:18:18;;;;;;;;;36.67;32.67;;;;;;;;5126392;27;45292;-78
2022/03/27 13:20:46;;;;;;;;;32.67;30.67;;;;;;;;5125965;27;45373;-78
2022/03/27 13:23:12;;;;;;;;;34.00;30.67;;;;;;;;5145777;27;47448;-79
2022/03/27 13:25:37;;;;;;;;;36.33;33.00;;;;;;;;5146593;27;46205;-79
2022/03/27 13:28:06;;;;;;;;;32.33;30.33;;;;;;;;5146835;27;45376;-77
2022/03/27 13:30:31;;;;;;;;;31.33;29.33;;;;;;;;5114682;27;45311;-76
2022/03/27 13:32:57;;;;;;;;;37.00;33.33;;;;;;;;5123715;27;45610;-78
2022/03/27 13:35:23;;;;;;;;;32.00;29.67;;;;;;;;5107391;27;47969;-77
2022/03/27 13:37:51;;;;;;;;;30.00;27.67;;;;;;;;5121982;27;45366;-79
2022/03/27 13:40:16;;;;;;;;;32.33;30.00;;;;;;;;5123682;27;45289;-78
2022/03/27 13:43:00;;;;;;;;;30.67;28.67;;;;;;;;5122945;27;45353;-79
2022/03/27 13:45:26;;;;;;;;;30.00;26.33;;;;;;;;5106534;27;47658;-78
2022/03/27 13:47:51;;;;;;;;;32.33;29.33;;;;;;;;5105038;27;45380;-78
2022/03/27 13:50:16;;;;;;;;;36.00;30.33;;;;;;;;5123924;27;45475;-79
2022/03/27 13:52:41;;;;;;;;;33.00;29.67;;;;;;;;5126854;27;45310;-79
2022/03/27 13:55:07;;;;;;;;;33.67;29.33;;;;;;;;5108797;27;47245;-79
2022/03/27 13:57:32;;;;;;;;;25.67;24.67;;;;;;;;5126534;27;45174;-76
2022/03/27 13:59:57;;;;;;;;;30.00;29.00;;;;;;;;5108325;27;45208;-79
2022/03/27 14:02:23;;;;;;;;;27.00;26.67;;;;;;;;5126136;27;44649;-78
2022/03/27 14:04:48;;;;;;;;;26.67;24.67;;;;;;;;5124833;27;46518;-79
2022/03/27 14:07:14;;;;;;;;;30.00;27.67;;;;;;;;5124967;27;45423;-79
2022/03/27 14:09:41;;;;;;;;;32.00;28.33;;;;;;;;5128855;27;45530;-79
2022/03/27 14:12:07;;;;;;;;;31.67;28.33;;;;;;;;5129509;27;45215;-79
2022/03/27 14:14:32;;;;;;;;;31.33;28.33;;;;;;;;5112454;27;48620;-79
2022/03/27 14:16:57;;;;;;;;;24.00;22.00;;;;;;;;5143068;27;45318;-77
2022/03/27 14:19:23;;;;;;;;;24.67;24.67;;;;;;;;5127437;27;45248;-78
2022/03/27 14:21:49;;;;;;;;;23.67;22.67;;;;;;;;5103480;27;46993;-76
2022/03/27 14:24:15;;;;;;;;;26.67;26.00;;;;;;;;5127139;27;45606;-78